createdAt,value
2018-09-30T00:01:46.993Z,101167.80
2018-09-30T00:06:44.401Z,101168.65
2018-09-30T00:11:41.917Z,101162.42
2018-09-30T00:16:39.343Z,101156.17
2018-09-30T00:21:36.774Z,101162.30
2018-09-30T00:26:39.930Z,101146.47
2018-09-30T00:31:37.411Z,101140.84
2018-09-30T00:36:34.872Z,101132.48
2018-09-30T00:41:32.292Z,101127.56
2018-09-30T00:46:29.836Z,101120.85
2018-09-30T00:51:27.351Z,101113.79
2018-09-30T00:56:24.851Z,101106.23
2018-09-30T01:01:22.284Z,101092.68
2018-09-30T01:06:19.768Z,101090.48
2018-09-30T01:11:17.288Z,101069.41
2018-09-30T01:16:14.768Z,101066.56
2018-09-30T01:21:12.199Z,101055.41
2018-09-30T01:26:09.748Z,101055.09
2018-09-30T01:31:07.331Z,101044.81
2018-09-30T01:36:04.732Z,101052.83
2018-09-30T01:41:02.135Z,101045.97
2018-09-30T01:45:59.572Z,101040.45
2018-09-30T01:50:56.978Z,101035.16
2018-09-30T01:55:54.479Z,101028.50
2018-09-30T02:00:51.971Z,101023.87
2018-09-30T02:05:49.443Z,101017.78
2018-09-30T02:10:46.908Z,101007.09
2018-09-30T02:15:44.360Z,101002.55
2018-09-30T02:20:41.779Z,100995.55
2018-09-30T02:25:39.201Z,100991.88
2018-09-30T02:30:36.720Z,100989.64
2018-09-30T02:35:34.144Z,100980.23
2018-09-30T02:40:31.543Z,100969.97
2018-09-30T02:45:28.959Z,100966.80
2018-09-30T02:50:26.368Z,100963.46
2018-09-30T02:55:23.844Z,100957.96
2018-09-30T03:00:21.283Z,100942.40
2018-09-30T03:05:18.708Z,100938.08
2018-09-30T03:10:16.253Z,100932.77
2018-09-30T03:15:13.668Z,100925.63
2018-09-30T03:20:11.123Z,100919.02
2018-09-30T03:25:08.540Z,100913.45
2018-09-30T03:30:05.992Z,100914.88
2018-09-30T03:35:03.471Z,100907.70
2018-09-30T03:40:01.059Z,100913.27
2018-09-30T03:44:58.491Z,100911.86
2018-09-30T03:49:55.905Z,100908.63
2018-09-30T03:54:54.279Z,100910.68
2018-09-30T03:59:51.692Z,100916.12
2018-09-30T04:04:49.154Z,100901.36
2018-09-30T04:09:46.595Z,100905.50
2018-09-30T04:14:44.027Z,100896.64
2018-09-30T04:19:41.455Z,100892.14
2018-09-30T04:24:44.059Z,100893.50
2018-09-30T04:29:41.585Z,100893.75
2018-09-30T04:34:39.101Z,100892.86
2018-09-30T04:39:36.512Z,100897.05
2018-09-30T04:44:33.920Z,100895.43
2018-09-30T04:49:31.371Z,100887.57
2018-09-30T04:54:32.668Z,100895.53
2018-09-30T04:59:30.200Z,100888.56
2018-09-30T05:04:27.646Z,100882.72
2018-09-30T05:09:25.076Z,100895.88
2018-09-30T05:14:22.600Z,100896.75
2018-09-30T05:19:20.079Z,100899.23
2018-09-30T05:24:18.728Z,100898.72
2018-09-30T05:29:16.168Z,100895.77
2018-09-30T05:34:13.655Z,100892.55
2018-09-30T05:39:11.535Z,100887.14
2018-09-30T05:44:09.520Z,100887.00
2018-09-30T05:49:07.139Z,100870.31
2018-09-30T05:54:14.081Z,100859.09
2018-09-30T05:59:11.648Z,100865.62
2018-09-30T06:04:09.741Z,100864.81
2018-09-30T06:09:09.220Z,100862.75
2018-09-30T06:14:06.759Z,100857.09
2018-09-30T06:19:04.101Z,100852.01
2018-09-30T06:24:13.975Z,100854.28
2018-09-30T06:29:11.620Z,100856.59
2018-09-30T06:34:09.067Z,100851.91
2018-09-30T06:39:08.943Z,100851.28
2018-09-30T06:44:06.704Z,100849.06
2018-09-30T06:49:04.263Z,100846.80
2018-09-30T06:54:06.619Z,100856.60
2018-09-30T06:59:06.494Z,100851.06
2018-09-30T07:04:04.046Z,100852.09
2018-09-30T07:09:01.568Z,100848.72
2018-09-30T07:14:01.053Z,100848.22
2018-09-30T07:19:00.014Z,100849.58
2018-09-30T07:24:09.143Z,100846.09
2018-09-30T07:29:06.939Z,100846.91
2018-09-30T07:34:04.437Z,100851.52
2018-09-30T07:39:01.969Z,100845.93
2018-09-30T07:43:59.531Z,100839.36
2018-09-30T07:48:57.063Z,100833.42
2018-09-30T07:54:07.408Z,100826.38
2018-09-30T07:59:04.890Z,100824.72
2018-09-30T08:04:02.364Z,100827.59
2018-09-30T08:09:00.114Z,100824.08
2018-09-30T08:13:57.638Z,100817.67
2018-09-30T08:18:55.179Z,100815.81
2018-09-30T08:24:05.144Z,100811.55
2018-09-30T08:29:02.894Z,100814.28
2018-09-30T08:34:00.370Z,100806.47
2018-09-30T08:38:57.830Z,100806.58
2018-09-30T08:43:59.365Z,100799.65
2018-09-30T08:48:57.027Z,100796.08
2018-09-30T08:54:02.583Z,100798.72
2018-09-30T08:59:00.106Z,100800.08
2018-09-30T09:03:57.638Z,100799.41
2018-09-30T09:08:55.143Z,100792.36
2018-09-30T09:13:55.228Z,100786.78
2018-09-30T09:18:54.557Z,100776.67
2018-09-30T09:23:54.328Z,100782.13
2018-09-30T09:28:54.009Z,100764.55
2018-09-30T09:33:52.141Z,100760.70
2018-09-30T09:38:52.642Z,100764.56
2018-09-30T09:43:50.373Z,100753.15
2018-09-30T09:48:47.898Z,100752.77
2018-09-30T09:53:47.741Z,100752.75
2018-09-30T09:58:45.555Z,100748.50
2018-09-30T10:03:42.983Z,100742.34
2018-09-30T10:08:40.420Z,100733.48
2018-09-30T10:13:37.896Z,100726.39
2018-09-30T10:18:36.436Z,100724.78
2018-09-30T10:23:34.589Z,100710.64
2018-09-30T10:28:32.497Z,100706.11
2018-09-30T10:33:30.959Z,100700.50
2018-09-30T10:38:29.307Z,100691.52
2018-09-30T10:43:31.326Z,100681.48
2018-09-30T10:53:24.988Z,100662.55
2018-09-30T10:58:24.277Z,100659.52
2018-09-30T11:03:21.934Z,100650.12
2018-09-30T11:08:19.603Z,100634.17
2018-09-30T11:13:24.465Z,100632.72
2018-09-30T11:18:25.744Z,100625.61
2018-09-30T11:23:24.787Z,100610.70
2018-09-30T11:28:24.109Z,100605.66
2018-09-30T11:33:25.876Z,100603.13
2018-09-30T11:38:24.475Z,100595.03
2018-09-30T11:43:25.390Z,100595.52
2018-09-30T11:48:25.333Z,100592.31
2018-09-30T11:53:25.866Z,100583.63
2018-09-30T11:58:28.826Z,100575.10
2018-09-30T12:03:27.072Z,100556.92
2018-09-30T12:08:29.272Z,100550.70
2018-09-30T12:13:27.890Z,100543.83
2018-09-30T12:18:28.598Z,100537.84
2018-09-30T12:23:28.114Z,100522.73
2018-09-30T12:28:28.496Z,100509.63
2018-09-30T12:33:26.694Z,100499.34
2018-09-30T12:38:26.384Z,100497.05
2018-09-30T12:43:24.490Z,100485.15
2018-09-30T12:48:26.303Z,100487.71
2018-09-30T12:58:32.269Z,100474.09
2018-09-30T13:03:31.872Z,100466.14
2018-09-30T13:08:35.161Z,100457.85
2018-09-30T13:13:35.060Z,100454.08
2018-09-30T13:18:35.635Z,100456.61
2018-09-30T13:23:35.856Z,100447.06
2018-09-30T13:28:33.560Z,100440.05
2018-09-30T13:33:31.295Z,100439.35
2018-09-30T13:38:28.840Z,100418.11
2018-09-30T13:43:26.488Z,100417.38
2018-09-30T13:48:26.693Z,100410.63
2018-09-30T13:53:26.956Z,100416.41
2018-09-30T13:58:28.403Z,100412.83
2018-09-30T14:03:27.070Z,100409.61
2018-09-30T14:08:30.865Z,100403.79
2018-09-30T14:13:33.335Z,100399.69
2018-09-30T14:18:32.462Z,100397.23
2018-09-30T14:23:30.979Z,100387.00
2018-09-30T14:28:32.670Z,100385.42
2018-09-30T14:33:31.760Z,100380.30
2018-09-30T14:38:29.692Z,100379.81
2018-09-30T14:43:30.846Z,100371.79
2018-09-30T14:48:31.325Z,100369.87
2018-09-30T14:53:30.920Z,100363.27
2018-09-30T14:58:30.776Z,100372.41
2018-09-30T15:03:30.729Z,100368.05
2018-09-30T15:08:29.038Z,100365.36
2018-09-30T15:13:28.253Z,100364.16
2018-09-30T15:18:26.699Z,100357.40
2018-09-30T15:23:25.005Z,100351.80
2018-09-30T15:28:24.207Z,100346.36
2018-09-30T15:33:30.773Z,100338.09
2018-09-30T15:38:32.739Z,100334.47
2018-09-30T15:43:39.320Z,100335.05
2018-09-30T15:48:42.758Z,100333.38
2018-09-30T15:53:44.837Z,100338.75
2018-09-30T15:58:48.146Z,100335.14
2018-09-30T16:03:53.760Z,100336.49
2018-09-30T16:08:52.472Z,100335.47
2018-09-30T16:13:53.451Z,100340.50
2018-09-30T16:19:04.361Z,100340.80
2018-09-30T16:24:04.984Z,100343.91
2018-09-30T16:29:03.794Z,100334.52
2018-09-30T16:34:01.412Z,100334.23
2018-09-30T16:38:59.037Z,100340.69
2018-09-30T16:43:56.616Z,100343.70
2018-09-30T16:48:54.118Z,100343.75
2018-09-30T16:53:53.617Z,100358.74
2018-09-30T16:58:52.785Z,100361.33
2018-09-30T17:03:52.736Z,100365.87
2018-09-30T17:08:50.733Z,100358.69
2018-09-30T17:13:48.274Z,100371.56
2018-09-30T17:18:45.882Z,100374.56
2018-09-30T17:23:45.020Z,100381.30
2018-09-30T17:28:42.530Z,100395.15
2018-09-30T17:33:40.134Z,100396.27
2018-09-30T17:38:37.639Z,100397.20
2018-09-30T17:43:35.154Z,100387.02
2018-09-30T17:48:32.718Z,100391.20
2018-09-30T17:53:30.418Z,100391.03
2018-09-30T17:58:29.711Z,100393.23
2018-09-30T18:03:27.300Z,100395.45
2018-09-30T18:08:27.028Z,100399.32
2018-09-30T18:13:24.603Z,100391.70
2018-09-30T18:18:22.090Z,100395.09
2018-09-30T18:23:19.561Z,100389.95
2018-09-30T18:28:17.093Z,100393.80
2018-09-30T18:33:14.560Z,100395.38
2018-09-30T18:38:12.242Z,100403.66
2018-09-30T18:43:10.185Z,100396.16
2018-09-30T18:48:08.270Z,100404.58
2018-09-30T18:53:06.179Z,100402.47
2018-09-30T18:58:03.682Z,100402.08
2018-09-30T19:03:01.411Z,100403.83
2018-09-30T19:07:59.494Z,100398.64
2018-09-30T19:12:56.987Z,100393.44
2018-09-30T19:17:54.525Z,100397.66
2018-09-30T19:22:52.023Z,100392.65
2018-09-30T19:27:49.557Z,100406.87
2018-09-30T19:32:47.120Z,100402.42
2018-09-30T19:37:51.310Z,100399.37
2018-09-30T19:42:48.788Z,100395.61
2018-09-30T19:47:46.319Z,100397.78
2018-09-30T19:52:43.809Z,100393.55
2018-09-30T19:57:41.418Z,100393.76
2018-09-30T20:02:38.897Z,100402.48
2018-09-30T20:07:36.370Z,100396.70
2018-09-30T20:12:33.899Z,100394.80
2018-09-30T20:17:31.406Z,100391.91
2018-09-30T20:22:28.906Z,100389.70
2018-09-30T20:27:26.441Z,100381.09
2018-09-30T20:32:24.171Z,100384.49
2018-09-30T20:37:21.650Z,100380.20
2018-09-30T20:42:19.129Z,100373.52
2018-09-30T20:47:16.603Z,100373.29
2018-09-30T20:52:14.137Z,100369.00
2018-09-30T20:57:11.621Z,100360.02
2018-09-30T21:02:09.118Z,100355.58
2018-09-30T21:07:06.647Z,100358.31
2018-09-30T21:12:04.142Z,100353.99
2018-09-30T21:17:01.628Z,100350.86
2018-09-30T21:21:59.142Z,100347.30
2018-09-30T21:26:56.651Z,100346.13
2018-09-30T21:31:54.113Z,100339.03
2018-09-30T21:36:51.606Z,100339.41
2018-09-30T21:41:52.367Z,100343.23
2018-09-30T21:46:49.940Z,100339.17
2018-09-30T21:51:47.446Z,100330.91
2018-09-30T21:56:44.981Z,100329.39
2018-09-30T22:01:43.572Z,100325.19
2018-09-30T22:06:41.073Z,100324.87
2018-09-30T22:11:38.562Z,100321.59
2018-09-30T22:16:36.057Z,100325.63
2018-09-30T22:21:33.580Z,100326.89
2018-09-30T22:26:31.045Z,100321.11
2018-09-30T22:31:28.517Z,100320.26
2018-09-30T22:36:26.013Z,100323.47
2018-09-30T22:41:23.486Z,100317.64
2018-09-30T22:46:20.975Z,100312.51
2018-09-30T22:51:18.457Z,100314.20
2018-09-30T22:56:15.954Z,100311.69
2018-09-30T23:01:13.442Z,100317.48
2018-09-30T23:06:10.944Z,100316.23
2018-09-30T23:11:08.430Z,100307.42
2018-09-30T23:16:06.051Z,100312.99
2018-09-30T23:21:03.545Z,100306.09
2018-09-30T23:26:01.059Z,100305.45
2018-09-30T23:30:58.542Z,100310.27
2018-09-30T23:35:56.065Z,100313.82
2018-09-30T23:40:53.595Z,100312.39
2018-09-30T23:45:51.081Z,100305.02
2018-09-30T23:50:48.563Z,100311.37
2018-09-30T23:55:46.168Z,100314.95
